Saturday, October 20, 2018, 9:36 PM EDT
Back to Local

KSLK, Adirondack Regional Airport

Location: Saranac Lake, NY, United States Lat: 44.4
Local Time: 9:36 PM EDT ( 1:36 GMT) Lon: -74.2
Time Zone: US/Eastern Elev: 1663 ft

Show me the last for .
Show Decoded

2018-10-20 20:51 METAR KSLK 210051Z AUTO 25005KT 10SM BKN050 06/01 A2958 RMK AO2 SLP024 T00560011
                 $ =
2018-10-20 19:51 METAR KSLK 202351Z AUTO 24007KT 10SM CLR 06/01 A2957 RMK AO2 SLP022 T00560006
                 10111 20056 51015 $ =
2018-10-20 18:51 METAR KSLK 202251Z AUTO 24005KT 10SM FEW055 06/01 A2956 RMK AO2 SLP018 T00560006
                 $ =
2018-10-20 17:51 METAR KSLK 202151Z AUTO VRB04KT 10SM CLR 07/00 A2954 RMK AO2 SLP010 T00720000 $
                 =
2018-10-20 16:51 METAR KSLK 202051Z AUTO 25008G18KT 220V280 10SM FEW050 09/M02 A2953 RMK AO2
                 SLP003 T00891017 55002 =
2018-10-20 15:51 METAR KSLK 201951Z AUTO 25011G21KT 10SM SCT049 BKN065 10/M01 A2952 RMK AO2
                 SLP002 T01001006 =
2018-10-20 14:51 METAR KSLK 201851Z AUTO 24013G28KT 10SM SCT049 BKN060 11/M01 A2953 RMK AO2 PK
                 WND 25028/1845 SLP002 T01061006 =
2018-10-20 13:51 METAR KSLK 201751Z AUTO 25010G23KT 210V280 10SM BKN044 OVC060 11/01 A2953 RMK
                 AO2 SLP003 60001 T01110006 10111 20061 50002 =
2018-10-20 12:51 METAR KSLK 201651Z AUTO 24011G23KT 10SM CLR 10/01 A2953 RMK AO2 SLP005 T01000006
                 =
2018-10-20 11:51 METAR KSLK 201551Z AUTO 25014G27KT 10SM FEW038 SCT048 08/01 A2954 RMK AO2 PK WND
                 23027/1545 SLP007 T00830006 =
2018-10-20 10:51 METAR KSLK 201451Z AUTO 25014G24KT 210V270 10SM SCT031 BKN042 08/02 A2953 RMK
                 AO2 PK WND 22031/1426 RAB25E35 SLP002 P0000 60001 T00830022 51009 =
2018-10-20 10:01 METAR KSLK 201401Z AUTO 24013G22KT 10SM FEW017 SCT026 BKN040 07/04 A2953 RMK AO2
                 T00720039 =
2018-10-20 09:51 METAR KSLK 201351Z AUTO 24008G21KT 210V270 10SM FEW017 SCT022 BKN027 08/04 A2952
                 RMK AO2 SLP002 T00780039 =
2018-10-20 08:51 METAR KSLK 201251Z AUTO 22012G20KT 10SM BKN017 BKN023 OVC030 07/06 A2950 RMK AO2
                 RAE14 SLP996 P0001 T00670056 =
2018-10-20 07:51 METAR KSLK 201151Z AUTO 23013G28KT 10SM -RA OVC024 07/05 A2950 RMK AO2 PK WND
                 21028/1144 RAB35 SLP993 P0000 60000 T00670050 10089 20067 53003 =
2018-10-20 06:51 METAR KSLK 201051Z AUTO 23017G28KT 10SM OVC027 07/03 A2948 RMK AO2 PK WND
                 21028/1045 RAB0956E15 SLP986 P0000 T00720033 =
2018-10-20 06:40 METAR KSLK 201040Z AUTO 22013G25KT 10SM OVC029 07/04 A2948 RMK AO2 PK WND
                 21027/1029 RAB0956E15 P0000 T00720039 =
2018-10-20 05:51 METAR KSLK 200951Z AUTO 23013G24KT 10SM OVC034 08/02 A2949 RMK AO2 PK WND
                 24027/0919 SLP987 T00830017 =
2018-10-20 04:51 METAR KSLK 200851Z AUTO 22015G22KT 10SM BKN045 OVC060 08/01 A2949 RMK AO2 SLP988
                 60000 T00830006 56033 =
2018-10-20 03:51 METAR KSLK 200751Z AUTO 21014KT 10SM SCT049 BKN080 BKN100 08/01 A2951 RMK AO2
                 SLP994 T00780006 =
2018-10-20 02:51 METAR KSLK 200651Z AUTO 22015G28KT 10SM OVC047 08/01 A2955 RMK AO2 PK WND
                 23028/0612 RAE07 SLP008 P0000 T00830011 =
2018-10-20 01:51 METAR KSLK 200551Z AUTO 23011G31KT 10SM -RA SCT042 BKN055 OVC070 08/01 A2959 RMK
                 AO2 PK WND 26032/0532 RAB28 SLP021 P0000 60000 T00830006 10106 20083 56025 =
2018-10-20 00:51 METAR KSLK 200451Z AUTO 23013KT 10SM BKN080 OVC100 09/00 A2961 RMK AO2 SLP030
                 T00890000 401500000 =
2018-10-19 23:51 METAR KSLK 200351Z AUTO 22010KT 10SM FEW080 OVC100 09/01 A2963 RMK AO2 SLP038
                 T00940006 =
2018-10-19 22:51 METAR KSLK 200251Z AUTO 22011KT 10SM BKN100 10/02 A2967 RMK AO2 PRESFR SLP052
                 T01000017 56039 =
2018-10-19 21:51 METAR KSLK 200151Z AUTO 22014KT 10SM CLR 10/03 A2971 RMK AO2 SLP066 T01000028 =

Support USWX by starting your Amazon purchase here.